createdAt,value
2023-03-22T00:01:53.629Z,11.00
2023-03-22T00:04:38.843Z,14.55
2023-03-22T00:07:23.771Z,12.88
2023-03-22T00:10:09.500Z,10.88
2023-03-22T00:12:55.591Z,9.27
2023-03-22T00:15:44.718Z,12.35
2023-03-22T00:18:30.715Z,10.25
2023-03-22T00:21:16.960Z,11.05
2023-03-22T00:24:01.836Z,14.45
2023-03-22T00:26:47.529Z,14.00
2023-03-22T00:29:32.452Z,18.17
2023-03-22T00:32:17.826Z,18.27
2023-03-22T00:35:04.338Z,12.75
2023-03-22T00:37:50.825Z,9.07
2023-03-22T00:40:36.095Z,16.35
2023-03-22T00:43:21.258Z,11.45
2023-03-22T00:46:06.756Z,11.27
2023-03-22T00:48:51.727Z,16.35
2023-03-22T00:51:36.765Z,19.88
2023-03-22T00:54:22.045Z,20.25
2023-03-22T00:57:07.832Z,13.95
2023-03-22T00:59:53.968Z,13.65
2023-03-22T01:02:40.112Z,11.00
2023-03-22T01:05:26.209Z,25.50
2023-03-22T01:08:12.951Z,14.18
2023-03-22T01:10:57.820Z,12.77
2023-03-22T01:13:42.920Z,14.90
2023-03-22T01:16:28.352Z,22.15
2023-03-22T01:19:13.684Z,14.10
2023-03-22T01:21:59.112Z,16.17
2023-03-22T01:24:44.406Z,17.95
2023-03-22T01:27:29.880Z,16.27
2023-03-22T01:30:15.488Z,8.75
2023-03-22T01:33:00.720Z,14.65
2023-03-22T01:35:45.771Z,16.65
2023-03-22T01:38:30.835Z,17.38
2023-03-22T01:41:17.228Z,12.95
2023-03-22T01:44:08.087Z,15.90
2023-03-22T01:46:53.349Z,12.40
2023-03-22T01:49:40.049Z,11.00
2023-03-22T01:52:25.804Z,14.60
2023-03-22T01:55:14.350Z,21.88
2023-03-22T01:58:00.969Z,18.38
2023-03-22T02:00:49.215Z,14.98
2023-03-22T02:04:08.646Z,14.85
2023-03-22T02:06:54.796Z,21.92
2023-03-22T02:09:41.431Z,24.25
2023-03-22T02:12:38.475Z,19.35
2023-03-22T02:15:51.808Z,16.08
2023-03-22T02:18:50.626Z,16.80
2023-03-22T02:22:03.000Z,20.27
2023-03-22T02:24:55.517Z,20.45
2023-03-22T02:28:08.539Z,16.67
2023-03-22T02:31:14.276Z,21.48
2023-03-22T02:34:21.472Z,16.48
2023-03-22T02:37:32.745Z,14.23
2023-03-22T02:40:32.068Z,20.80
2023-03-22T02:43:31.043Z,24.40
2023-03-22T02:46:44.614Z,20.25
2023-03-22T02:49:37.831Z,16.70
2023-03-22T02:52:51.098Z,17.25
2023-03-22T02:55:51.074Z,17.98
2023-03-22T02:58:45.753Z,21.23
2023-03-22T03:01:36.876Z,20.10
2023-03-22T03:04:28.506Z,17.15
2023-03-22T03:07:18.037Z,23.95
2023-03-22T03:10:04.680Z,19.38
2023-03-22T03:12:49.497Z,15.45
2023-03-22T03:15:35.827Z,22.38
2023-03-22T03:18:24.118Z,18.83
2023-03-22T03:21:36.071Z,19.77
2023-03-22T03:24:29.258Z,17.58
2023-03-22T03:27:32.251Z,26.52
2023-03-22T03:30:28.350Z,22.30
2023-03-22T03:33:18.253Z,15.48
2023-03-22T03:36:09.476Z,18.35
2023-03-22T03:38:56.412Z,21.85
2023-03-22T03:41:46.646Z,16.67
2023-03-22T03:44:35.914Z,19.23
2023-03-22T03:47:21.770Z,22.57
2023-03-22T03:50:08.407Z,16.95
2023-03-22T03:52:55.600Z,20.90
2023-03-22T03:55:40.925Z,19.92
2023-03-22T03:58:25.889Z,18.98
2023-03-22T04:01:11.208Z,15.10
2023-03-22T04:03:56.580Z,16.40
2023-03-22T04:06:42.752Z,15.00
2023-03-22T04:09:33.808Z,19.02
2023-03-22T04:12:18.765Z,15.73
2023-03-22T04:15:03.905Z,19.60
2023-03-22T04:17:49.178Z,16.85
2023-03-22T04:20:34.234Z,13.27
2023-03-22T04:23:22.490Z,15.85
2023-03-22T04:26:07.573Z,18.58
2023-03-22T04:28:52.767Z,23.75
2023-03-22T04:31:39.117Z,12.90
2023-03-22T04:34:24.434Z,15.90
2023-03-22T04:37:09.369Z,14.93
2023-03-22T04:39:54.467Z,17.48
2023-03-22T04:42:39.640Z,13.60
2023-03-22T04:45:29.358Z,16.70
2023-03-22T04:48:14.572Z,14.45
2023-03-22T04:51:04.224Z,15.65
2023-03-22T04:53:49.536Z,13.13
2023-03-22T04:56:34.889Z,14.15
2023-03-22T04:59:20.545Z,15.90
2023-03-22T05:02:06.070Z,18.80
2023-03-22T05:04:51.486Z,11.25
2023-03-22T05:07:36.672Z,8.80
2023-03-22T05:10:22.074Z,12.80
2023-03-22T05:13:06.948Z,9.43
2023-03-22T05:15:52.280Z,8.38
2023-03-22T05:18:42.372Z,13.73
2023-03-22T05:21:28.414Z,10.07
2023-03-22T05:24:13.891Z,13.63
2023-03-22T05:27:01.093Z,12.35
2023-03-22T05:29:46.786Z,13.70
2023-03-22T05:32:32.193Z,9.00
2023-03-22T05:35:17.544Z,10.65
2023-03-22T05:38:03.787Z,14.30
2023-03-22T05:40:49.093Z,8.38
2023-03-22T05:43:34.158Z,12.35
2023-03-22T05:46:19.350Z,8.93
2023-03-22T05:49:04.324Z,16.63
2023-03-22T05:51:56.160Z,12.70
2023-03-22T05:54:41.625Z,12.40
2023-03-22T05:57:27.274Z,10.93
2023-03-22T06:00:16.319Z,14.77
2023-03-22T06:03:03.935Z,11.93
2023-03-22T06:05:50.853Z,14.15
2023-03-22T06:08:37.946Z,17.52
2023-03-22T06:11:23.932Z,8.63
2023-03-22T06:14:09.309Z,9.73
2023-03-22T06:16:54.736Z,8.60
2023-03-22T06:19:39.841Z,10.20
2023-03-22T06:22:25.131Z,9.65
2023-03-22T06:25:11.496Z,7.47
2023-03-22T06:27:56.810Z,7.13
2023-03-22T06:30:42.101Z,10.90
2023-03-22T06:33:27.889Z,10.45
2023-03-22T06:36:13.059Z,10.05
2023-03-22T06:38:59.193Z,13.93
2023-03-22T06:41:44.496Z,12.65
2023-03-22T06:44:29.790Z,8.70
2023-03-22T06:47:15.394Z,8.02
2023-03-22T06:50:00.751Z,10.45
2023-03-22T06:52:51.237Z,10.12
2023-03-22T06:55:36.316Z,9.90
2023-03-22T06:58:21.663Z,13.25
2023-03-22T07:01:07.182Z,10.85
2023-03-22T07:03:52.608Z,13.65
2023-03-22T07:06:37.855Z,7.60
2023-03-22T07:09:24.849Z,9.25
2023-03-22T07:12:10.300Z,9.32
2023-03-22T07:14:55.639Z,11.02
2023-03-22T07:17:40.948Z,11.48
2023-03-22T07:20:26.127Z,16.15
2023-03-22T07:23:11.558Z,13.98
2023-03-22T07:25:56.667Z,11.15
2023-03-22T07:28:44.544Z,10.27
2023-03-22T07:31:31.548Z,13.95
2023-03-22T07:34:17.150Z,11.90
2023-03-22T07:37:03.402Z,14.88
2023-03-22T07:39:48.780Z,14.82
2023-03-22T07:42:34.650Z,14.90
2023-03-22T07:45:20.824Z,13.95
2023-03-22T07:48:06.472Z,16.17
2023-03-22T07:50:55.439Z,19.65
2023-03-22T07:53:40.577Z,22.17
2023-03-22T07:56:25.814Z,18.40
2023-03-22T07:59:11.189Z,17.55
2023-03-22T08:01:56.963Z,24.35
2023-03-22T08:04:42.246Z,22.75
2023-03-22T08:07:27.556Z,21.25
2023-03-22T08:10:12.759Z,22.75
2023-03-22T08:12:57.788Z,19.30
2023-03-22T08:15:43.359Z,24.23
2023-03-22T08:18:28.448Z,16.23
2023-03-22T08:21:13.559Z,15.88
2023-03-22T08:23:58.609Z,19.52
2023-03-22T08:26:45.707Z,23.55
2023-03-22T08:29:31.241Z,18.90
2023-03-22T08:32:16.882Z,16.27
2023-03-22T08:35:02.029Z,19.15
2023-03-22T08:37:47.169Z,14.60
2023-03-22T08:40:32.521Z,16.83
2023-03-22T08:43:17.610Z,26.90
2023-03-22T08:46:02.616Z,15.02
2023-03-22T08:48:51.775Z,19.30
2023-03-22T08:51:37.054Z,21.73
2023-03-22T08:54:22.935Z,20.35
2023-03-22T08:57:09.561Z,21.40
2023-03-22T08:59:56.712Z,21.52
2023-03-22T09:02:41.958Z,14.65
2023-03-22T09:05:27.099Z,17.38
2023-03-22T09:08:20.074Z,13.32
2023-03-22T09:11:08.558Z,18.08
2023-03-22T09:13:53.800Z,10.98
2023-03-22T09:16:39.089Z,12.50
2023-03-22T09:19:24.723Z,10.75
2023-03-22T09:22:09.953Z,8.40
2023-03-22T09:24:54.884Z,12.57
2023-03-22T09:27:40.913Z,7.43
2023-03-22T09:30:26.307Z,5.63
2023-03-22T09:33:11.432Z,4.80
2023-03-22T09:35:57.148Z,3.35
2023-03-22T09:38:42.649Z,6.78
2023-03-22T09:41:33.904Z,6.78
2023-03-22T09:44:28.726Z,8.05
2023-03-22T09:47:18.743Z,6.57
2023-03-22T09:50:24.838Z,5.03
2023-03-22T09:53:14.296Z,4.80
2023-03-22T09:56:07.599Z,6.40
2023-03-22T09:58:55.320Z,9.60
2023-03-22T10:01:52.869Z,5.75
2023-03-22T10:04:51.236Z,5.82
2023-03-22T10:07:56.146Z,6.18
2023-03-22T10:10:43.131Z,3.25
2023-03-22T10:13:31.362Z,4.63
2023-03-22T10:16:32.089Z,5.65
2023-03-22T10:19:28.073Z,3.78
2023-03-22T10:22:18.506Z,2.70
2023-03-22T10:25:06.702Z,2.13
2023-03-22T10:27:52.630Z,1.75
2023-03-22T10:30:40.149Z,2.90
2023-03-22T10:33:37.562Z,4.10
2023-03-22T10:36:27.101Z,6.80
2023-03-22T10:42:13.475Z,7.63
2023-03-22T10:45:08.465Z,6.18
2023-03-22T10:48:00.941Z,2.97
2023-03-22T10:50:46.300Z,1.55
2023-03-22T10:53:45.674Z,2.70
2023-03-22T10:56:30.654Z,1.90
2023-03-22T10:59:43.899Z,2.00
2023-03-22T11:02:31.823Z,3.55
2023-03-22T11:05:24.180Z,4.75
2023-03-22T11:08:14.584Z,6.68
2023-03-22T11:11:00.448Z,3.47
2023-03-22T11:14:05.075Z,2.65
2023-03-22T11:16:58.137Z,2.83
2023-03-22T11:19:57.799Z,2.38
2023-03-22T11:22:45.754Z,3.72
2023-03-22T11:25:34.626Z,2.00
2023-03-22T11:28:41.863Z,1.97
2023-03-22T11:31:27.759Z,1.45
2023-03-22T11:34:19.356Z,1.38
2023-03-22T11:37:08.309Z,1.15
2023-03-22T11:39:59.730Z,1.60
2023-03-22T11:42:46.575Z,0.40
2023-03-22T11:45:36.034Z,2.17
2023-03-22T11:48:24.644Z,0.47
2023-03-22T11:51:33.410Z,1.05
2023-03-22T11:54:24.488Z,2.33
2023-03-22T11:57:20.429Z,1.50
2023-03-22T12:00:27.813Z,1.23
2023-03-22T12:03:21.943Z,3.25
2023-03-22T12:06:33.613Z,2.55
2023-03-22T12:09:25.849Z,0.30
2023-03-22T12:12:19.245Z,1.42
2023-03-22T12:15:10.966Z,0.50
2023-03-22T12:18:16.518Z,0.85
2023-03-22T12:21:02.734Z,0.40
2023-03-22T12:23:47.878Z,1.45
2023-03-22T12:26:35.165Z,2.15
2023-03-22T12:29:21.633Z,2.05
2023-03-22T12:32:15.814Z,2.10
2023-03-22T12:35:18.062Z,1.10
2023-03-22T12:38:23.015Z,1.55
2023-03-22T12:41:15.909Z,2.63
2023-03-22T12:44:05.886Z,2.67
2023-03-22T12:47:12.667Z,5.43
2023-03-22T12:50:05.438Z,3.50
2023-03-22T12:52:56.649Z,3.47
2023-03-22T12:55:44.614Z,8.70
2023-03-22T12:58:30.350Z,7.80
2023-03-22T13:01:30.593Z,5.78
2023-03-22T13:04:31.712Z,10.57
2023-03-22T13:07:31.878Z,9.50
2023-03-22T13:10:29.282Z,5.68
2023-03-22T13:13:17.238Z,5.93
2023-03-22T13:16:11.582Z,5.35
2023-03-22T13:18:58.871Z,8.88
2023-03-22T13:21:45.593Z,5.53
2023-03-22T13:24:32.562Z,7.65
2023-03-22T13:27:17.840Z,7.40
2023-03-22T13:30:07.814Z,9.95
2023-03-22T13:33:10.105Z,11.02
2023-03-22T13:36:04.786Z,17.13
2023-03-22T13:38:58.554Z,9.38
2023-03-22T13:41:48.999Z,13.07
2023-03-22T13:44:40.056Z,13.75
2023-03-22T13:47:42.782Z,9.85
2023-03-22T13:50:30.092Z,7.55
2023-03-22T13:53:28.547Z,16.48
2023-03-22T13:56:14.401Z,10.85
2023-03-22T13:58:59.864Z,10.60
2023-03-22T14:01:59.540Z,20.52
2023-03-22T14:04:49.094Z,9.00
2023-03-22T14:07:44.308Z,11.70
2023-03-22T14:10:46.180Z,16.60
2023-03-22T14:13:44.366Z,8.20
2023-03-22T14:16:43.652Z,11.88
2023-03-22T14:19:32.736Z,12.48
